East Chevington, United Kingdom
Current Conditions -  °F | °C
As of 5:50 AM on Monday 22 Dec 2014 (Local Time) from EGQM Reporting Station
Rain Showers Rain Showers  
Wind Chill: 52°   Ceiling: 1600
Heat Index: 52°   Visibility: 5mi
Dew Point: 52°   Wind: 23mph
Humidity: 100%   Direction: 260°W
Pressure: 29.56"   Gusts: 35mph
Location:  55.28°N, 1.58°W
Report Text: EGQM 220550Z AUTO 26020G30KT 8000 SHRA FEW012/// BKN016/// 11/11 Q1001
Loading
Personal Weather Stations






























Interactive Weather Map New forecast layout! Learn more

10-Day Weather Forecast

Advertisements
Track Severe Weather on mobile